Time;durP1;ratioP1;P1;durP2;ratioP2;P2;SDS_P1;SDS_P2;PMS_P1;PMS_P2;Temp;Humidity;BMP_temperature;BMP_pressure;BME280_temperature;BME280_humidity;BME280_pressure;Samples;Min_cycle;Max_cycle;Signal;HPM_P1;HPM_P2
2022/05/16 00:02:13;;;;;;;8.33;2.80;;;23.20;99.90;;;;;;5093224;28;20534;-69
2022/05/16 00:04:43;;;;;;;7.10;2.40;;;22.90;99.90;;;;;;5093469;28;20206;-69
2022/05/16 00:07:11;;;;;;;5.13;1.80;;;23.30;99.90;;;;;;5093243;28;20262;-69
2022/05/16 00:09:39;;;;;;;6.80;2.60;;;23.60;99.90;;;;;;5092045;28;20215;-71
2022/05/16 00:12:07;;;;;;;4.40;2.27;;;23.70;99.90;;;;;;5093620;28;20272;-69
2022/05/16 00:14:35;;;;;;;3.67;1.80;;;23.70;99.90;;;;;;5093170;28;20175;-69
2022/05/16 00:17:03;;;;;;;6.03;2.00;;;23.70;99.90;;;;;;5093036;28;20211;-69
2022/05/16 00:19:31;;;;;;;7.20;2.90;;;23.80;99.90;;;;;;5093132;28;20176;-70
2022/05/16 00:21:59;;;;;;;3.57;2.17;;;24.00;99.90;;;;;;5093416;28;20647;-70
2022/05/16 00:24:28;;;;;;;8.77;2.70;;;24.40;99.90;;;;;;5093383;28;20639;-69
2022/05/16 00:26:58;;;;;;;5.03;1.83;;;24.20;99.90;;;;;;5093040;28;20175;-70
2022/05/16 00:29:26;;;;;;;4.37;1.33;;;24.70;99.90;;;;;;5093580;28;20250;-69
2022/05/16 00:31:55;;;;;;;5.70;1.63;;;24.50;99.90;;;;;;5093075;28;20542;-70
2022/05/16 00:34:23;;;;;;;8.43;1.70;;;24.30;99.90;;;;;;5093046;28;20225;-69
2022/05/16 00:36:50;;;;;;;10.10;2.07;;;24.50;99.90;;;;;;5092869;28;20198;-70
2022/05/16 00:39:19;;;;;;;5.10;1.50;;;23.60;99.90;;;;;;5092800;28;20191;-70
2022/05/16 00:41:48;;;;;;;6.17;2.03;;;23.80;99.90;;;;;;5093100;28;20175;-69
2022/05/16 00:44:15;;;;;;;5.27;1.77;;;24.00;99.90;;;;;;5092859;28;20183;-70
2022/05/16 00:46:43;;;;;;;2.33;0.93;;;24.60;99.90;;;;;;5092977;28;20160;-70
2022/05/16 00:49:19;;;;;;;1.33;0.70;;;24.70;99.90;;;;;;5092866;28;20175;-70
2022/05/16 00:51:54;;;;;;;4.27;0.97;;;24.80;99.90;;;;;;5093088;28;20175;-69
2022/05/16 00:54:41;;;;;;;2.20;1.13;;;25.00;99.90;;;;;;5093136;28;20168;-71
2022/05/16 00:57:12;;;;;;;2.07;0.80;;;25.30;99.90;;;;;;5092519;28;20231;-70
2022/05/16 00:59:40;;;;;;;5.47;1.10;;;25.50;99.90;;;;;;5092909;28;20258;-71
2022/05/16 01:04:55;;;;;;;4.50;1.03;;;26.40;99.90;;;;;;5093222;28;20205;-69
2022/05/16 01:07:26;;;;;;;3.23;0.50;;;25.70;99.90;;;;;;5092678;28;20172;-71
2022/05/16 01:09:54;;;;;;;2.10;0.70;;;25.80;99.90;;;;;;5092702;28;20211;-70
2022/05/16 01:12:25;;;;;;;2.00;0.83;;;25.90;99.90;;;;;;5092910;28;20232;-70
2022/05/16 01:14:57;;;;;;;2.40;0.80;;;26.10;99.90;;;;;;5092614;28;20175;-72
2022/05/16 01:17:25;;;;;;;3.10;0.93;;;26.10;99.90;;;;;;5092392;28;20217;-70
2022/05/16 01:19:53;;;;;;;3.43;1.33;;;26.30;99.90;;;;;;5091371;28;20180;-70
2022/05/16 01:22:42;;;;;;;4.57;0.40;;;26.00;99.90;;;;;;5091902;28;20188;-69
2022/05/16 01:25:28;;;;;;;0.60;0.43;;;26.00;99.90;;;;;;5090243;28;20215;-69
2022/05/16 01:28:01;;;;;;;1.20;0.50;;;26.90;99.90;;;;;;5090490;28;20624;-68
2022/05/16 01:30:50;;;;;;;0.80;0.50;;;26.90;99.90;;;;;;5094468;28;20175;-67
2022/05/16 01:33:20;;;;;;;2.90;0.50;;;26.50;99.90;;;;;;5093757;28;20195;-67
2022/05/16 01:35:47;;;;;;;2.37;0.70;;;26.10;99.90;;;;;;5094618;28;20171;-67
2022/05/16 01:38:19;;;;;;;0.40;0.33;;;26.10;99.90;;;;;;5094684;28;20317;-67
2022/05/16 01:40:47;;;;;;;1.90;0.50;;;26.10;99.90;;;;;;5094615;28;20179;-67
2022/05/16 01:43:16;;;;;;;1.07;0.57;;;26.90;99.90;;;;;;5094829;28;20649;-67
2022/05/16 01:45:45;;;;;;;0.57;0.37;;;27.00;99.90;;;;;;5093036;28;20266;-67
2022/05/16 01:48:14;;;;;;;1.07;0.50;;;26.80;99.90;;;;;;5094654;28;20175;-67
2022/05/16 01:50:43;;;;;;;2.20;0.50;;;27.00;99.90;;;;;;5094435;28;20624;-67
2022/05/16 01:53:12;;;;;;;0.40;0.40;;;26.50;99.90;;;;;;5093432;28;20175;-68
2022/05/16 01:55:39;;;;;;;0.40;0.40;;;26.70;99.90;;;;;;5094367;28;20180;-67
2022/05/16 01:58:07;;;;;;;3.10;0.60;;;26.90;99.90;;;;;;5094250;28;20285;-64
2022/05/16 02:00:35;;;;;;;0.83;0.63;;;27.10;99.90;;;;;;5094313;28;20564;-65
2022/05/16 02:03:05;;;;;;;2.03;0.53;;;26.90;99.90;;;;;;5094409;28;20185;-64
2022/05/16 02:05:33;;;;;;;0.87;0.60;;;27.10;99.90;;;;;;5094313;28;20194;-67
2022/05/16 02:08:00;;;;;;;2.80;0.50;;;27.10;99.90;;;;;;5094201;28;20190;-68
2022/05/16 02:10:28;;;;;;;2.07;0.50;;;27.10;99.90;;;;;;5093630;28;20645;-67
2022/05/16 02:12:59;;;;;;;0.67;0.43;;;27.20;99.90;;;;;;5093057;28;21535;-68
2022/05/16 02:15:29;;;;;;;1.03;0.50;;;27.30;99.90;;;;;;5093573;28;20175;-67
2022/05/16 02:17:57;;;;;;;1.20;0.30;;;27.70;99.90;;;;;;5093751;28;20277;-67
2022/05/16 02:20:26;;;;;;;5.78;0.60;;;27.90;99.90;;;;;;5093780;28;20313;-67
2022/05/16 02:25:42;;;;;;;2.17;0.68;;;27.00;99.90;;;;;;5094180;28;20194;-67
2022/05/16 02:28:14;;;;;;;0.87;0.40;;;27.00;99.90;;;;;;5094016;28;20267;-68
2022/05/16 02:30:43;;;;;;;1.30;0.50;;;26.80;99.90;;;;;;5093655;28;20638;-68
2022/05/16 02:33:13;;;;;;;5.33;0.60;;;27.30;99.90;;;;;;5092995;28;20201;-68
2022/05/16 02:35:41;;;;;;;5.93;0.60;;;26.50;99.90;;;;;;5093248;28;20256;-69
2022/05/16 02:38:09;;;;;;;4.17;0.70;;;26.80;99.90;;;;;;5093313;28;20210;-68
2022/05/16 02:40:37;;;;;;;1.93;0.50;;;26.60;99.90;;;;;;5093143;28;20191;-66
2022/05/16 02:43:05;;;;;;;3.27;0.50;;;27.10;99.90;;;;;;5093069;28;20695;-67
2022/05/16 02:45:34;;;;;;;4.33;0.63;;;27.40;99.90;;;;;;5093369;28;20167;-67
2022/05/16 02:48:02;;;;;;;1.73;0.50;;;27.30;99.90;;;;;;5093259;28;20167;-67
2022/05/16 02:50:30;;;;;;;0.47;0.40;;;27.60;99.90;;;;;;5092809;28;20620;-68
2022/05/16 02:52:57;;;;;;;3.70;0.60;;;27.60;99.90;;;;;;5092822;28;20183;-68
2022/05/16 02:55:24;;;;;;;0.67;0.40;;;27.70;99.90;;;;;;5093491;28;20228;-69
2022/05/16 02:57:52;;;;;;;0.67;0.43;;;27.40;99.90;;;;;;5092887;28;20234;-67
2022/05/16 03:00:20;;;;;;;3.20;0.60;;;27.30;99.90;;;;;;5093159;28;20183;-67
2022/05/16 03:02:47;;;;;;;3.10;0.60;;;28.00;99.90;;;;;;5092937;28;20183;-68
2022/05/16 03:05:14;;;;;;;0.60;0.50;;;28.20;99.90;;;;;;5093080;28;20175;-68
2022/05/16 03:07:42;;;;;;;1.37;0.60;;;28.10;99.90;;;;;;5092865;28;20220;-68
2022/05/16 03:10:11;;;;;;;2.63;0.63;;;27.30;99.90;;;;;;5093139;28;20641;-68
2022/05/16 03:12:39;;;;;;;1.10;0.53;;;27.00;99.90;;;;;;5092673;28;20187;-69
2022/05/16 03:15:06;;;;;;;0.80;0.60;;;27.10;99.90;;;;;;5092946;28;20175;-68
2022/05/16 03:17:33;;;;;;;1.53;0.53;;;27.70;99.90;;;;;;5092548;28;20207;-68
2022/05/16 03:20:02;;;;;;;1.63;0.67;;;28.00;99.90;;;;;;5092858;28;20172;-69
2022/05/16 03:22:29;;;;;;;5.73;0.77;;;27.30;99.90;;;;;;5091323;28;20234;-68
2022/05/16 03:24:56;;;;;;;4.33;0.60;;;27.90;99.90;;;;;;5092798;28;20225;-68
2022/05/16 03:27:24;;;;;;;1.10;0.63;;;28.40;99.90;;;;;;5092482;28;20175;-68
2022/05/16 03:29:51;;;;;;;2.73;0.60;;;28.60;99.90;;;;;;5092869;28;20171;-68
2022/05/16 03:32:18;;;;;;;3.33;0.70;;;28.80;99.90;;;;;;5092422;28;20690;-68
2022/05/16 03:34:48;;;;;;;0.77;0.67;;;28.30;99.90;;;;;;5092789;28;20176;-68
2022/05/16 03:37:17;;;;;;;1.80;0.70;;;28.20;99.90;;;;;;5091969;28;20271;-68
2022/05/16 03:42:32;;;;;;;2.07;0.67;;;27.30;99.90;;;;;;5092584;28;20687;-68
2022/05/16 03:44:59;;;;;;;4.40;0.80;;;27.60;99.90;;;;;;5091216;28;20637;-69
2022/05/16 03:47:27;;;;;;;0.80;0.60;;;27.70;99.90;;;;;;5091856;28;20186;-69
2022/05/16 03:49:54;;;;;;;2.83;0.87;;;28.30;99.90;;;;;;5092437;28;20615;-68
2022/05/16 03:52:22;;;;;;;3.17;0.77;;;28.40;99.90;;;;;;5091629;28;20187;-68
2022/05/16 03:54:49;;;;;;;2.00;1.30;;;28.60;99.90;;;;;;5092214;28;20227;-68
2022/05/16 03:57:16;;;;;;;1.73;0.70;;;28.00;99.90;;;;;;5091997;28;20227;-68
2022/05/16 03:59:43;;;;;;;2.83;0.70;;;27.30;99.90;;;;;;5092200;28;20208;-68
2022/05/16 04:02:11;;;;;;;1.33;0.60;;;28.00;99.90;;;;;;5092084;28;20667;-67
2022/05/16 04:04:38;;;;;;;1.27;0.60;;;28.50;99.90;;;;;;5092035;28;20652;-67
2022/05/16 04:07:06;;;;;;;1.70;0.70;;;28.70;99.90;;;;;;5090886;28;20183;-67
2022/05/16 04:09:33;;;;;;;1.43;0.90;;;28.90;99.90;;;;;;5092248;28;20258;-68
2022/05/16 04:12:01;;;;;;;3.87;0.77;;;28.30;99.90;;;;;;5091732;28;20229;-68
2022/05/16 04:14:28;;;;;;;2.20;0.70;;;28.40;99.90;;;;;;5092185;28;20185;-68
2022/05/16 04:16:58;;;;;;;2.30;1.33;;;28.10;99.90;;;;;;5092019;28;20203;-68
2022/05/16 04:19:26;;;;;;;1.00;0.50;;;28.30;99.90;;;;;;5090728;28;20191;-69
2022/05/16 04:21:53;;;;;;;3.93;0.77;;;28.80;99.90;;;;;;5091608;28;20185;-68
2022/05/16 04:24:21;;;;;;;3.17;0.80;;;28.70;99.90;;;;;;5091680;28;20297;-68
2022/05/16 04:26:48;;;;;;;1.70;0.60;;;28.50;99.90;;;;;;5092074;28;20181;-69
2022/05/16 04:29:16;;;;;;;2.77;0.77;;;28.40;99.90;;;;;;5091944;28;20504;-68
2022/05/16 04:31:43;;;;;;;2.80;0.90;;;27.90;99.90;;;;;;5091791;28;20263;-68
2022/05/16 04:34:11;;;;;;;0.77;0.70;;;28.00;99.90;;;;;;5091760;28;20178;-69
2022/05/16 04:36:42;;;;;;;2.30;0.80;;;28.10;99.90;;;;;;5091763;28;20185;-68
2022/05/16 04:39:09;;;;;;;2.07;0.80;;;27.90;99.90;;;;;;5091918;28;20175;-68
2022/05/16 04:44:22;;;;;;;4.13;1.00;;;27.40;99.90;;;;;;5092096;28;20244;-67
2022/05/16 04:46:49;;;;;;;4.00;0.83;;;27.30;99.90;;;;;;5091748;28;20182;-68
2022/05/16 04:49:17;;;;;;;1.50;0.60;;;27.70;99.90;;;;;;5091707;28;20179;-67
2022/05/16 04:51:44;;;;;;;4.40;0.80;;;27.50;99.90;;;;;;5091752;28;20194;-68
2022/05/16 04:54:12;;;;;;;1.97;1.00;;;27.20;99.90;;;;;;5091795;28;20217;-68
2022/05/16 04:56:39;;;;;;;2.70;0.80;;;27.40;99.90;;;;;;5091438;28;20225;-68
2022/05/16 04:59:08;;;;;;;3.33;0.80;;;27.00;99.90;;;;;;5093220;28;20176;-68
2022/05/16 05:01:36;;;;;;;1.03;0.80;;;26.70;99.90;;;;;;5095492;28;20171;-68
2022/05/16 05:04:03;;;;;;;1.90;1.00;;;26.70;99.90;;;;;;5095695;28;20181;-68
2022/05/16 05:06:30;;;;;;;6.80;0.93;;;26.80;99.90;;;;;;5095680;28;20185;-69
2022/05/16 05:08:58;;;;;;;3.40;0.83;;;27.00;99.90;;;;;;5095548;28;20175;-69
2022/05/16 05:16:56;;;;;;;2.63;0.50;;;26.80;99.90;;;;;;5095146;28;20222;-69
2022/05/16 05:19:23;;;;;;;0.83;0.50;;;26.30;99.90;;;;;;5095015;28;20278;-68
2022/05/16 05:21:50;;;;;;;2.00;0.83;;;26.20;99.90;;;;;;5095225;28;20182;-68
2022/05/16 05:24:18;;;;;;;3.20;0.73;;;26.10;99.90;;;;;;5094084;28;20190;-68
2022/05/16 05:26:47;;;;;;;1.80;0.83;;;26.10;99.90;;;;;;5095051;28;20221;-69
2022/05/16 05:29:16;;;;;;;2.50;0.90;;;26.00;99.90;;;;;;5095119;28;20175;-68
2022/05/16 05:31:44;;;;;;;1.97;0.50;;;26.00;99.90;;;;;;5095055;28;20181;-68
2022/05/16 05:34:12;;;;;;;3.50;0.70;;;25.10;99.90;;;;;;5095083;28;20191;-68
2022/05/16 05:36:43;;;;;;;3.37;0.77;;;24.80;99.90;;;;;;5094863;28;20262;-68
2022/05/16 05:39:16;;;;;;;7.10;1.60;;;24.40;99.90;;;;;;5094962;28;20176;-68
2022/05/16 05:41:44;;;;;;;5.37;1.17;;;24.00;99.90;;;;;;5095110;28;20240;-68
2022/05/16 05:44:12;;;;;;;2.63;0.80;;;23.60;99.90;;;;;;5094929;28;20213;-68
2022/05/16 05:46:41;;;;;;;3.43;1.00;;;23.50;99.90;;;;;;5094817;28;20187;-69
2022/05/16 05:49:10;;;;;;;4.20;1.30;;;23.20;99.90;;;;;;5094702;28;20175;-67
2022/05/16 05:51:37;;;;;;;1.30;0.90;;;23.20;99.90;;;;;;5094638;28;20182;-68
2022/05/16 05:54:05;;;;;;;5.27;0.80;;;23.10;99.90;;;;;;5094745;28;20175;-68
2022/05/16 05:56:33;;;;;;;1.40;0.80;;;23.10;99.90;;;;;;5094192;28;20222;-67
2022/05/16 05:59:01;;;;;;;3.00;1.00;;;23.20;99.90;;;;;;5094521;28;20663;-68
2022/05/16 06:01:32;;;;;;;5.23;1.20;;;23.20;99.90;;;;;;5094521;28;20224;-68
2022/05/16 06:03:59;;;;;;;3.00;1.03;;;23.10;99.90;;;;;;5093229;28;20624;-68
2022/05/16 06:06:28;;;;;;;3.67;0.97;;;22.90;99.90;;;;;;5094331;28;20175;-68
2022/05/16 06:08:55;;;;;;;2.30;1.20;;;22.80;99.90;;;;;;5094424;28;20649;-68
2022/05/16 06:11:27;;;;;;;1.43;0.77;;;22.60;99.90;;;;;;5093712;28;20557;-68
2022/05/16 06:13:58;;;;;;;1.63;0.90;;;22.50;99.90;;;;;;5094297;28;20584;-68
2022/05/16 06:16:25;;;;;;;2.07;0.90;;;22.30;99.90;;;;;;5094068;28;20554;-68
2022/05/16 06:18:52;;;;;;;4.33;1.17;;;22.10;99.90;;;;;;5094013;28;20276;-68
2022/05/16 06:21:20;;;;;;;2.07;0.70;;;22.00;99.90;;;;;;5094234;28;20178;-68
2022/05/16 06:23:47;;;;;;;3.73;1.37;;;22.00;99.90;;;;;;5093979;28;20189;-68
2022/05/16 06:26:15;;;;;;;1.77;1.00;;;22.10;99.90;;;;;;5094096;28;20183;-68
2022/05/16 06:28:42;;;;;;;3.80;1.10;;;22.00;99.90;;;;;;5093867;28;20199;-68
2022/05/16 06:31:10;;;;;;;2.93;0.93;;;21.80;99.90;;;;;;5093862;28;20530;-68
2022/05/16 06:33:37;;;;;;;1.20;0.90;;;21.60;99.90;;;;;;5093832;28;20171;-68
2022/05/16 06:36:05;;;;;;;0.87;0.70;;;21.50;99.90;;;;;;5092491;28;20628;-68
2022/05/16 06:38:35;;;;;;;2.07;1.10;;;21.40;99.90;;;;;;5093724;28;20210;-68
2022/05/16 06:41:03;;;;;;;2.80;0.80;;;21.30;99.90;;;;;;5093971;28;20187;-68
2022/05/16 06:43:31;;;;;;;6.17;1.07;;;21.20;99.90;;;;;;5093758;28;20178;-67
2022/05/16 06:45:59;;;;;;;4.23;1.07;;;21.00;99.90;;;;;;5092092;28;20660;-68
2022/05/16 06:48:27;;;;;;;7.90;1.50;;;20.80;99.90;;;;;;5092112;28;20541;-68
2022/05/16 06:50:55;;;;;;;4.73;0.83;;;20.70;99.90;;;;;;5093465;28;20175;-68
2022/05/16 06:53:26;;;;;;;1.27;0.80;;;20.60;99.90;;;;;;5093475;28;20654;-68
2022/05/16 06:55:55;;;;;;;4.30;1.00;;;20.40;99.90;;;;;;5093384;28;20214;-68
2022/05/16 06:58:24;;;;;;;4.53;1.30;;;20.30;99.90;;;;;;5092993;28;20247;-68
2022/05/16 07:00:52;;;;;;;2.97;1.30;;;20.20;99.90;;;;;;5093398;28;20179;-68
2022/05/16 07:03:19;;;;;;;1.80;1.20;;;20.00;99.90;;;;;;5093431;28;20271;-68
2022/05/16 07:05:49;;;;;;;4.67;0.93;;;19.80;99.90;;;;;;5093249;28;20190;-68
2022/05/16 07:08:19;;;;;;;2.10;1.00;;;19.70;99.90;;;;;;5093298;28;20229;-68
2022/05/16 07:10:48;;;;;;;7.43;1.33;;;19.60;99.90;;;;;;5093219;28;20259;-68
2022/05/16 07:13:15;;;;;;;1.70;1.10;;;19.50;99.90;;;;;;5093188;28;20183;-68
2022/05/16 07:15:43;;;;;;;2.43;1.20;;;19.40;99.90;;;;;;5092965;28;20235;-68
2022/05/16 07:18:11;;;;;;;2.43;1.20;;;19.40;99.90;;;;;;5092597;28;20223;-67
2022/05/16 07:20:40;;;;;;;2.70;1.47;;;19.30;99.90;;;;;;5092802;28;20196;-68
2022/05/16 07:23:07;;;;;;;2.17;1.33;;;19.20;99.90;;;;;;5090607;28;20219;-68
2022/05/16 07:27:56;;;;;;;2.17;1.27;;;19.20;99.90;;;;;;5092708;28;20196;-67
2022/05/16 07:28:23;;;;;;;6.13;1.30;;;19.10;99.90;;;;;;5092552;28;20191;-68
2022/05/16 07:30:51;;;;;;;1.73;1.10;;;19.00;99.90;;;;;;5092913;28;20640;-67
2022/05/16 07:33:19;;;;;;;4.33;1.50;;;19.00;99.90;;;;;;5092879;28;20186;-67
2022/05/16 07:35:55;;;;;;;3.83;2.10;;;18.90;99.90;;;;;;5092545;28;20179;-67
2022/05/16 07:38:25;;;;;;;8.53;2.83;;;19.00;99.90;;;;;;5092415;28;20210;-67
2022/05/16 07:40:54;;;;;;;4.43;2.60;;;18.90;99.90;;;;;;5092793;28;20181;-68
2022/05/16 07:43:21;;;;;;;5.43;2.57;;;19.00;99.90;;;;;;5092757;28;20184;-67
2022/05/16 07:45:49;;;;;;;6.40;2.20;;;19.00;99.90;;;;;;5092458;28;20539;-67
2022/05/16 07:48:17;;;;;;;9.70;1.73;;;19.20;99.90;;;;;;5092220;28;20211;-67
2022/05/16 07:50:45;;;;;;;3.13;1.60;;;19.30;99.90;;;;;;5092541;28;20181;-66
2022/05/16 07:53:13;;;;;;;4.13;2.00;;;19.60;99.90;;;;;;5091168;28;20186;-68
2022/05/16 07:55:53;;;;;;;5.27;1.90;;;19.70;99.90;;;;;;5092152;28;20548;-67
2022/05/16 07:58:23;;;;;;;5.23;1.80;;;19.90;99.90;;;;;;5091162;28;20230;-67
2022/05/16 08:00:52;;;;;;;2.57;1.37;;;20.00;99.90;;;;;;5088792;28;20186;-67
2022/05/16 08:03:22;;;;;;;2.10;0.80;;;20.00;99.90;;;;;;5091553;28;20187;-67
2022/05/16 08:05:49;;;;;;;5.47;1.20;;;20.00;99.90;;;;;;5091379;28;20194;-67
2022/05/16 08:11:03;;;;;;;3.30;0.90;;;20.10;99.90;;;;;;5091957;28;20277;-68
2022/05/16 08:13:31;;;;;;;9.20;1.20;;;20.10;99.90;;;;;;5091487;28;20210;-67
2022/05/16 08:15:59;;;;;;;3.77;1.17;;;20.00;99.90;;;;;;5092010;28;20224;-66
2022/05/16 08:18:27;;;;;;;3.50;0.87;;;20.00;99.90;;;;;;5091613;28;20293;-66
2022/05/16 08:20:54;;;;;;;2.47;0.90;;;20.00;99.90;;;;;;5090942;28;20183;-67
2022/05/16 08:23:26;;;;;;;3.07;0.97;;;20.00;99.90;;;;;;5089267;28;20204;-67
2022/05/16 08:26:04;;;;;;;3.63;0.97;;;19.90;99.90;;;;;;5090954;28;20183;-67
2022/05/16 08:28:34;;;;;;;3.67;0.90;;;19.90;99.90;;;;;;5090043;28;20231;-66
2022/05/16 08:31:02;;;;;;;2.60;1.10;;;19.80;99.90;;;;;;5079486;28;20252;-68
2022/05/16 08:33:30;;;;;;;6.53;0.93;;;19.70;99.90;;;;;;5090177;28;20230;-69
2022/05/16 08:41:31;;;;;;;2.80;1.43;;;19.30;99.90;;;;;;5096048;28;20186;-68
2022/05/16 08:44:10;;;;;;;3.93;1.20;;;19.10;99.90;;;;;;5096105;28;20241;-68
2022/05/16 08:46:39;;;;;;;4.30;1.00;;;19.00;99.90;;;;;;5095871;28;20176;-68
2022/05/16 08:49:36;;;;;;;4.40;1.23;;;18.80;99.90;;;;;;5094001;28;20198;-68
2022/05/16 08:52:33;;;;;;;3.33;0.97;;;18.60;99.90;;;;;;5095957;28;20179;-67
2022/05/16 08:55:22;;;;;;;5.97;1.33;;;18.60;99.90;;;;;;5090121;28;20188;-68
2022/05/16 08:58:00;;;;;;;9.07;1.10;;;18.60;99.90;;;;;;5095644;28;20232;-69
2022/05/16 09:00:51;;;;;;;4.80;1.10;;;18.70;99.90;;;;;;5095581;28;20215;-69
2022/05/16 09:03:27;;;;;;;3.47;1.23;;;18.70;99.90;;;;;;5095271;28;20179;-69
2022/05/16 09:06:02;;;;;;;6.47;1.10;;;18.60;99.90;;;;;;5096264;28;20186;-69
2022/05/16 09:09:11;;;;;;;4.87;1.87;;;18.70;99.90;;;;;;5096233;28;20236;-69
2022/05/16 09:12:01;;;;;;;6.40;1.27;;;18.70;99.90;;;;;;5084756;28;20248;-69
2022/05/16 09:14:37;;;;;;;5.63;1.10;;;18.60;99.90;;;;;;5096929;28;20248;-70
2022/05/16 09:17:32;;;;;;;6.83;1.10;;;18.70;99.90;;;;;;5096801;28;20233;-69
2022/05/16 09:20:20;;;;;;;2.20;1.10;;;18.60;99.90;;;;;;5080122;28;20205;-69
2022/05/16 09:23:12;;;;;;;5.93;1.30;;;18.50;99.90;;;;;;5096435;28;20636;-68
2022/05/16 09:25:47;;;;;;;3.40;1.10;;;18.50;99.90;;;;;;5096422;28;20187;-69
2022/05/16 09:28:35;;;;;;;4.20;1.00;;;18.40;99.90;;;;;;5096395;28;20181;-69
2022/05/16 09:31:19;;;;;;;9.97;1.23;;;18.30;99.90;;;;;;5094693;28;20206;-68
2022/05/16 09:33:55;;;;;;;2.97;0.97;;;18.20;99.90;;;;;;5075907;28;20642;-69
2022/05/16 09:36:35;;;;;;;2.23;1.23;;;18.10;99.90;;;;;;5087199;28;20254;-69
2022/05/16 09:39:04;;;;;;;9.03;1.90;;;18.10;99.90;;;;;;5102879;28;20198;-70
2022/05/16 09:41:45;;;;;;;3.80;1.63;;;18.00;99.90;;;;;;5115706;28;20170;-69
2022/05/16 09:44:40;;;;;;;5.23;1.00;;;17.90;99.90;;;;;;5106554;28;20199;-68
2022/05/16 09:47:46;;;;;;;7.97;2.53;;;17.70;99.90;;;;;;5095069;28;20179;-69
2022/05/16 09:50:24;;;;;;;17.83;10.77;;;17.50;99.90;;;;;;5072469;28;20219;-69
2022/05/16 09:53:09;;;;;;;2.23;1.07;;;17.50;99.90;;;;;;5057044;28;20179;-69
2022/05/16 09:55:46;;;;;;;3.43;1.10;;;17.70;99.90;;;;;;5089084;28;20187;-69
2022/05/16 09:58:19;;;;;;;4.37;1.07;;;17.80;99.90;;;;;;5095382;28;20704;-69
2022/05/16 10:00:59;;;;;;;4.97;1.17;;;17.80;99.90;;;;;;5094596;28;20539;-69
2022/05/16 10:03:48;;;;;;;3.00;1.17;;;17.80;99.90;;;;;;5095913;28;20174;-70
2022/05/16 10:06:29;;;;;;;5.47;0.93;;;17.60;99.90;;;;;;5095844;28;20549;-69
2022/05/16 10:09:02;;;;;;;6.07;1.10;;;17.40;99.90;;;;;;5093984;28;20317;-69
2022/05/16 10:11:30;;;;;;;1.47;0.70;;;17.20;99.90;;;;;;5095317;28;20167;-68
2022/05/16 10:13:57;;;;;;;5.13;1.10;;;17.00;99.90;;;;;;5095322;28;20179;-69
2022/05/16 10:16:28;;;;;;;3.17;0.93;;;16.70;99.90;;;;;;5095753;28;20183;-69
2022/05/16 10:19:15;;;;;;;2.43;1.00;;;16.50;99.90;;;;;;5095009;28;20225;-68
2022/05/16 10:22:04;;;;;;;2.57;1.03;;;16.20;99.90;;;;;;5094906;28;20266;-69
2022/05/16 10:24:49;;;;;;;4.60;1.60;;;16.00;99.90;;;;;;5093930;28;20554;-67
2022/05/16 10:27:21;;;;;;;4.90;1.33;;;15.90;99.90;;;;;;5094767;28;20171;-69
2022/05/16 10:29:52;;;;;;;3.33;1.60;;;15.70;99.90;;;;;;5094918;28;20190;-68
2022/05/16 10:35:33;;;;;;;6.20;1.73;;;15.50;99.90;;;;;;5094092;28;20234;-69
2022/05/16 10:38:06;;;;;;;4.40;1.67;;;15.40;99.90;;;;;;5094910;28;20211;-69
2022/05/16 10:40:45;;;;;;;3.30;1.40;;;15.30;99.90;;;;;;5074891;28;20184;-70
2022/05/16 10:43:39;;;;;;;1.93;1.07;;;15.20;99.90;;;;;;5074697;28;20183;-68
2022/05/16 10:46:24;;;;;;;3.47;1.07;;;15.20;99.90;;;;;;5088221;28;20262;-69
2022/05/16 10:49:01;;;;;;;2.77;0.93;;;15.20;99.90;;;;;;5094821;28;20183;-69
2022/05/16 10:52:10;;;;;;;2.90;0.90;;;15.10;99.90;;;;;;5095632;28;20246;-69
2022/05/16 10:54:38;;;;;;;9.70;1.70;;;15.20;99.90;;;;;;5094774;28;20199;-70
2022/05/16 10:57:08;;;;;;;2.97;1.30;;;15.10;99.90;;;;;;5093766;28;20231;-69
2022/05/16 10:59:38;;;;;;;6.17;1.70;;;15.10;99.90;;;;;;5094333;28;20190;-68
2022/05/16 11:02:08;;;;;;;4.13;1.40;;;15.00;99.90;;;;;;5095043;28;20633;-68
2022/05/16 11:04:48;;;;;;;5.13;1.63;;;14.90;99.90;;;;;;5094408;28;20217;-69
2022/05/16 11:07:47;;;;;;;3.70;1.03;;;14.90;99.90;;;;;;5094597;28;20289;-70
2022/05/16 11:10:36;;;;;;;6.03;1.43;;;14.80;99.90;;;;;;5079427;28;20195;-70
2022/05/16 11:13:44;;;;;;;3.77;1.63;;;14.70;99.90;;;;;;5093235;28;20179;-70
2022/05/16 11:16:27;;;;;;;5.07;1.60;;;14.50;99.90;;;;;;5093457;28;20671;-70
2022/05/16 11:19:13;;;;;;;6.37;1.87;;;14.60;99.90;;;;;;5078182;28;20210;-70
2022/05/16 11:22:01;;;;;;;5.80;1.60;;;14.60;99.90;;;;;;5093554;28;20634;-70
2022/05/16 11:24:49;;;;;;;2.83;1.50;;;14.40;99.90;;;;;;5094096;28;20192;-70
2022/05/16 11:27:34;;;;;;;4.57;1.60;;;14.40;99.90;;;;;;5094193;28;20574;-70
2022/05/16 11:30:39;;;;;;;6.63;1.67;;;14.30;99.90;;;;;;5093364;28;20586;-68
2022/05/16 11:33:25;;;;;;;6.20;1.60;;;14.20;99.90;;;;;;5092258;28;20591;-70
2022/05/16 11:36:02;;;;;;;4.50;1.67;;;14.10;99.90;;;;;;5094219;28;20224;-69
2022/05/16 11:39:02;;;;;;;5.50;1.80;;;14.10;99.90;;;;;;5093401;28;20212;-68
2022/05/16 11:41:46;;;;;;;6.13;1.87;;;14.10;99.90;;;;;;5093956;28;20183;-69
2022/05/16 11:44:28;;;;;;;5.17;1.80;;;14.00;99.90;;;;;;5093862;28;20174;-69
2022/05/16 11:47:05;;;;;;;8.03;2.10;;;14.00;99.90;;;;;;5093884;28;20182;-69
2022/05/16 11:49:54;;;;;;;5.13;2.03;;;14.00;99.90;;;;;;5093688;28;20171;-69
2022/05/16 11:52:35;;;;;;;4.37;1.70;;;14.00;99.90;;;;;;5093785;28;20652;-70
2022/05/16 12:00:54;;;;;;;8.10;2.33;;;13.80;99.90;;;;;;5093961;28;20553;-69
2022/05/16 12:03:23;;;;;;;6.03;2.17;;;13.80;99.90;;;;;;5093430;28;20176;-69
2022/05/16 12:06:13;;;;;;;5.23;2.73;;;13.80;99.90;;;;;;5093423;28;20195;-68
2022/05/16 12:08:44;;;;;;;5.20;2.60;;;13.80;99.90;;;;;;5092837;28;20541;-68
2022/05/16 12:11:26;;;;;;;6.33;2.53;;;13.80;99.90;;;;;;5092998;28;20179;-69
2022/05/16 12:14:12;;;;;;;6.00;2.47;;;13.80;99.90;;;;;;5093352;28;20178;-69
2022/05/16 12:16:55;;;;;;;10.33;3.10;;;13.80;99.90;;;;;;5093559;28;20175;-68
2022/05/16 12:19:37;;;;;;;8.77;2.20;;;13.80;99.90;;;;;;5093309;28;20201;-69
2022/05/16 12:22:19;;;;;;;5.20;2.20;;;13.80;99.90;;;;;;5092262;28;20698;-68
2022/05/16 12:24:53;;;;;;;4.40;1.90;;;13.80;99.90;;;;;;5093209;28;20283;-69
2022/05/16 12:27:45;;;;;;;4.33;2.13;;;13.70;99.90;;;;;;5093295;28;20185;-69
2022/05/16 12:30:34;;;;;;;3.63;1.97;;;13.70;99.90;;;;;;5093083;28;20225;-68
2022/05/16 12:33:02;;;;;;;4.83;1.93;;;13.60;99.90;;;;;;5093248;28;20186;-69
2022/05/16 12:35:38;;;;;;;7.47;1.90;;;13.50;99.90;;;;;;5093543;28;20232;-69
2022/05/16 12:38:06;;;;;;;7.03;2.60;;;13.40;99.90;;;;;;5091588;28;20588;-68
2022/05/16 12:40:52;;;;;;;3.73;2.00;;;13.30;99.90;;;;;;5090883;28;20179;-68
2022/05/16 12:43:26;;;;;;;12.00;2.27;;;13.30;99.90;;;;;;5093133;28;20183;-68
2022/05/16 12:46:15;;;;;;;4.03;1.60;;;13.20;99.90;;;;;;5093137;28;20648;-68
2022/05/16 12:48:56;;;;;;;5.00;1.53;;;13.10;99.90;;;;;;5092794;28;20175;-67
2022/05/16 12:51:45;;;;;;;7.50;2.00;;;13.00;99.90;;;;;;5093099;28;20233;-67
2022/05/16 12:54:47;;;;;;;5.70;1.80;;;13.00;99.90;;;;;;5091110;28;20200;-67
2022/05/16 12:57:39;;;;;;;3.10;1.83;;;12.90;99.90;;;;;;5090629;28;20237;-67
2022/05/16 13:00:09;;;;;;;2.23;1.60;;;12.80;99.90;;;;;;5092818;28;20193;-67
2022/05/16 13:02:45;;;;;;;7.47;1.70;;;12.80;99.90;;;;;;5092718;28;20186;-67
2022/05/16 13:05:15;;;;;;;4.50;1.70;;;12.80;99.90;;;;;;5092809;28;20268;-68
2022/05/16 13:08:01;;;;;;;5.63;1.70;;;12.70;99.90;;;;;;5092675;28;20186;-69
2022/05/16 13:10:31;;;;;;;4.33;1.50;;;12.70;99.90;;;;;;5092411;28;20231;-69
2022/05/16 13:13:03;;;;;;;4.30;1.80;;;12.70;99.90;;;;;;5093158;28;20179;-67
2022/05/16 13:15:43;;;;;;;5.93;2.00;;;12.70;99.90;;;;;;5093131;28;20171;-67
2022/05/16 13:18:16;;;;;;;3.53;1.43;;;12.70;99.90;;;;;;5092516;28;20223;-68
2022/05/16 13:20:45;;;;;;;4.13;1.70;;;12.70;99.90;;;;;;5094145;28;20176;-67
2022/05/16 13:23:15;;;;;;;4.93;1.83;;;12.70;99.90;;;;;;5096285;28;20186;-69
2022/05/16 13:31:13;;;;;;;2.37;1.50;;;12.80;99.90;;;;;;5095979;28;20224;-68
2022/05/16 13:33:41;;;;;;;6.27;2.20;;;12.60;99.90;;;;;;5096568;28;20628;-68
2022/05/16 13:36:26;;;;;;;5.27;1.40;;;12.60;99.90;;;;;;5096323;28;20534;-68
2022/05/16 13:39:01;;;;;;;6.93;1.90;;;12.50;99.90;;;;;;5095994;28;20260;-67
2022/05/16 13:41:31;;;;;;;3.90;1.53;;;12.40;99.90;;;;;;5095683;28;20267;-68
2022/05/16 13:43:58;;;;;;;4.87;1.90;;;12.40;99.90;;;;;;5096326;28;20174;-67
2022/05/16 13:46:28;;;;;;;4.50;1.70;;;12.40;99.90;;;;;;5095749;28;20179;-68
2022/05/16 13:49:01;;;;;;;4.50;1.80;;;12.30;99.90;;;;;;5095415;28;20693;-69
2022/05/16 13:51:29;;;;;;;2.00;1.73;;;12.30;99.90;;;;;;5095558;28;20206;-68
2022/05/16 13:53:57;;;;;;;3.83;1.63;;;12.20;99.90;;;;;;5095723;28;20723;-68
2022/05/16 13:56:51;;;;;;;4.13;1.47;;;12.20;99.90;;;;;;5095463;28;20659;-68